Time;durP1;ratioP1;P1;durP2;ratioP2;P2;SDS_P1;SDS_P2;PMS_P1;PMS_P2;Temp;Humidity;BMP_temperature;BMP_pressure;BME280_temperature;BME280_humidity;BME280_pressure;Samples;Min_cycle;Max_cycle;Signal;HPM_P1;HPM_P2
2022/05/29 00:00:21;;;;;;;17.30;5.33;;;;;;;;;;6032339;29;20225;-73
2022/05/29 00:03:42;;;;;;;16.20;6.50;;;;;;;;;;6033513;29;20579;-73
2022/05/29 00:07:04;;;;;;;8.60;5.70;;;;;;;;;;6033301;29;20234;-73
2022/05/29 00:10:24;;;;;;;11.90;5.17;;;;;;;;;;6027676;29;20612;-73
2022/05/29 00:13:45;;;;;;;12.40;5.40;;;;;;;;;;6032452;29;20238;-72
2022/05/29 00:17:08;;;;;;;10.37;4.80;;;;;;;;;;6030231;29;20241;-74
2022/05/29 00:20:28;;;;;;;11.13;4.60;;;;;;;;;;6031127;29;20262;-74
2022/05/29 00:23:50;;;;;;;11.30;4.20;;;;;;;;;;6035369;29;20233;-74
2022/05/29 00:27:11;;;;;;;10.13;3.93;;;;;;;;;;6036436;29;20484;-73
2022/05/29 00:30:31;;;;;;;14.37;5.27;;;;;;;;;;6035823;29;20238;-72
2022/05/29 00:33:53;;;;;;;14.67;5.97;;;;;;;;;;6036393;29;20238;-73
2022/05/29 00:37:13;;;;;;;10.60;4.33;;;;;;;;;;6037342;29;20242;-73
2022/05/29 00:40:37;;;;;;;9.83;5.03;;;;;;;;;;6040219;29;20598;-73
2022/05/29 00:44:07;;;;;;;13.73;5.87;;;;;;;;;;6038602;29;20242;-73
2022/05/29 00:47:28;;;;;;;12.93;4.90;;;;;;;;;;6036446;29;20233;-72
2022/05/29 00:50:51;;;;;;;10.23;4.73;;;;;;;;;;6037693;29;20231;-73
2022/05/29 00:54:13;;;;;;;13.10;5.93;;;;;;;;;;6039119;29;20230;-73
2022/05/29 00:57:34;;;;;;;15.60;5.90;;;;;;;;;;6034850;29;20233;-74
2022/05/29 01:00:56;;;;;;;17.00;6.57;;;;;;;;;;6033425;29;20266;-73
2022/05/29 01:04:17;;;;;;;17.20;6.23;;;;;;;;;;6026997;29;20482;-74
2022/05/29 01:07:39;;;;;;;14.43;6.23;;;;;;;;;;6033210;29;20237;-74
2022/05/29 01:11:11;;;;;;;15.97;5.70;;;;;;;;;;6037957;29;20234;-73
2022/05/29 01:14:41;;;;;;;19.93;5.20;;;;;;;;;;6039625;29;20249;-73
2022/05/29 01:18:07;;;;;;;17.30;6.77;;;;;;;;;;6034868;29;20233;-74
2022/05/29 01:21:45;;;;;;;13.90;6.00;;;;;;;;;;6037930;29;20691;-73
2022/05/29 01:25:27;;;;;;;15.10;5.47;;;;;;;;;;6024916;29;20272;-72
2022/05/29 01:28:51;;;;;;;13.10;5.40;;;;;;;;;;6019556;29;20238;-73
2022/05/29 01:32:14;;;;;;;10.43;4.53;;;;;;;;;;6030592;29;20908;-74
2022/05/29 01:35:35;;;;;;;16.17;6.20;;;;;;;;;;6030961;29;20744;-74
2022/05/29 01:38:58;;;;;;;16.00;5.73;;;;;;;;;;6030955;29;20234;-74
2022/05/29 01:42:21;;;;;;;13.90;6.17;;;;;;;;;;6032793;29;20420;-74
2022/05/29 01:45:56;;;;;;;11.33;4.60;;;;;;;;;;6032835;29;20261;-73
2022/05/29 01:49:19;;;;;;;11.93;5.03;;;;;;;;;;6028179;29;20238;-74
2022/05/29 01:52:43;;;;;;;15.20;5.73;;;;;;;;;;6037404;29;20950;-74
2022/05/29 01:56:07;;;;;;;14.63;5.13;;;;;;;;;;6017477;29;20241;-73
2022/05/29 01:59:33;;;;;;;13.60;4.87;;;;;;;;;;6032405;29;20234;-74
2022/05/29 02:02:57;;;;;;;15.03;5.40;;;;;;;;;;6029183;29;20345;-73
2022/05/29 02:06:21;;;;;;;11.37;5.67;;;;;;;;;;6033705;29;20238;-72
2022/05/29 02:09:44;;;;;;;13.37;4.93;;;;;;;;;;6034130;29;20237;-74
2022/05/29 02:13:07;;;;;;;14.13;5.20;;;;;;;;;;6038137;29;20325;-74
2022/05/29 02:16:30;;;;;;;13.77;5.07;;;;;;;;;;6030355;29;20237;-73
2022/05/29 02:19:56;;;;;;;18.57;5.17;;;;;;;;;;6034699;29;20252;-74
2022/05/29 02:23:19;;;;;;;14.77;5.93;;;;;;;;;;6034604;29;20230;-73
2022/05/29 02:26:41;;;;;;;11.90;4.87;;;;;;;;;;6037534;29;20238;-74
2022/05/29 02:30:02;;;;;;;14.50;5.23;;;;;;;;;;6033507;29;20841;-73
2022/05/29 02:33:25;;;;;;;17.37;5.20;;;;;;;;;;6035507;29;20242;-74
2022/05/29 02:36:50;;;;;;;9.53;4.60;;;;;;;;;;6033786;29;22153;-73
2022/05/29 02:40:17;;;;;;;12.10;4.73;;;;;;;;;;6028782;29;20262;-73
2022/05/29 02:43:40;;;;;;;11.73;4.70;;;;;;;;;;6033323;29;20234;-73
2022/05/29 02:47:05;;;;;;;18.17;5.00;;;;;;;;;;6033269;29;20230;-73
2022/05/29 02:50:32;;;;;;;15.43;5.30;;;;;;;;;;6019510;29;20242;-74
2022/05/29 02:53:54;;;;;;;13.67;4.57;;;;;;;;;;6033276;29;20222;-74
2022/05/29 02:57:15;;;;;;;16.77;4.73;;;;;;;;;;6032945;29;20238;-73
2022/05/29 03:00:43;;;;;;;13.27;5.37;;;;;;;;;;6029932;29;20250;-74
2022/05/29 03:04:10;;;;;;;12.47;4.57;;;;;;;;;;6036205;29;20272;-73
2022/05/29 03:07:34;;;;;;;13.67;3.83;;;;;;;;;;6032086;29;20245;-73
2022/05/29 03:11:02;;;;;;;13.23;5.20;;;;;;;;;;6036399;29;20231;-74
2022/05/29 03:14:28;;;;;;;14.77;5.13;;;;;;;;;;6035865;29;20335;-74
2022/05/29 03:17:53;;;;;;;8.33;4.13;;;;;;;;;;6031152;29;20975;-73
2022/05/29 03:21:20;;;;;;;10.83;4.33;;;;;;;;;;6034446;29;20505;-74
2022/05/29 03:24:44;;;;;;;13.83;4.93;;;;;;;;;;6034848;29;20250;-73
2022/05/29 03:28:09;;;;;;;13.50;6.10;;;;;;;;;;6030709;29;20329;-74
2022/05/29 03:31:31;;;;;;;17.37;6.07;;;;;;;;;;6025068;29;20237;-73
2022/05/29 03:34:52;;;;;;;20.07;5.10;;;;;;;;;;6032001;29;20242;-72
2022/05/29 03:38:12;;;;;;;14.97;5.70;;;;;;;;;;6031012;29;20234;-73
2022/05/29 03:41:39;;;;;;;12.03;4.27;;;;;;;;;;6034888;29;20233;-73
2022/05/29 03:45:01;;;;;;;11.83;4.83;;;;;;;;;;6032174;29;20226;-73
2022/05/29 03:48:22;;;;;;;13.27;5.17;;;;;;;;;;6028102;29;20504;-73
2022/05/29 03:51:43;;;;;;;16.47;5.73;;;;;;;;;;6038289;29;20238;-74
2022/05/29 03:55:04;;;;;;;12.27;5.90;;;;;;;;;;6032924;29;20246;-73
2022/05/29 03:58:24;;;;;;;22.67;5.97;;;;;;;;;;6028417;29;20238;-72
2022/05/29 04:01:46;;;;;;;12.37;4.27;;;;;;;;;;6032140;29;20271;-74
2022/05/29 04:05:07;;;;;;;11.07;4.60;;;;;;;;;;6031304;29;20242;-73
2022/05/29 04:12:07;;;;;;;10.67;5.63;;;;;;;;;;6034209;29;20233;-73
2022/05/29 04:15:28;;;;;;;12.03;5.30;;;;;;;;;;6030274;29;20577;-74
2022/05/29 04:18:50;;;;;;;13.77;4.40;;;;;;;;;;6035122;29;20241;-74
2022/05/29 04:22:11;;;;;;;11.93;4.30;;;;;;;;;;6033057;29;20241;-74
2022/05/29 04:25:32;;;;;;;18.03;5.67;;;;;;;;;;6032162;29;20241;-73
2022/05/29 04:28:53;;;;;;;17.00;4.87;;;;;;;;;;6031162;29;20368;-73
2022/05/29 04:35:54;;;;;;;20.73;6.13;;;;;;;;;;6029293;29;20242;-73
2022/05/29 04:39:14;;;;;;;13.50;5.40;;;;;;;;;;6030381;29;20234;-73
2022/05/29 04:42:35;;;;;;;16.33;5.77;;;;;;;;;;6032828;29;20261;-73
2022/05/29 04:45:56;;;;;;;12.73;4.67;;;;;;;;;;6031746;29;20230;-73
2022/05/29 04:49:17;;;;;;;15.97;4.83;;;;;;;;;;6029881;29;20226;-73
2022/05/29 04:52:39;;;;;;;15.03;5.40;;;;;;;;;;6031477;29;20234;-73
2022/05/29 04:56:00;;;;;;;13.10;5.13;;;;;;;;;;6015554;29;20249;-73
2022/05/29 04:59:20;;;;;;;14.93;5.13;;;;;;;;;;6035092;29;20619;-73
2022/05/29 05:02:41;;;;;;;11.87;5.87;;;;;;;;;;6030329;29;20260;-73
2022/05/29 05:06:01;;;;;;;14.23;6.57;;;;;;;;;;6042092;29;20233;-74
2022/05/29 05:09:23;;;;;;;13.60;5.20;;;;;;;;;;6039690;29;20238;-74
2022/05/29 05:12:44;;;;;;;18.67;7.20;;;;;;;;;;6043006;29;20257;-75
2022/05/29 05:16:05;;;;;;;15.53;5.60;;;;;;;;;;6041158;29;20561;-73
2022/05/29 05:19:26;;;;;;;15.40;5.20;;;;;;;;;;6040619;29;20389;-74
2022/05/29 05:22:46;;;;;;;17.90;5.33;;;;;;;;;;6045637;29;20237;-74
2022/05/29 05:26:12;;;;;;;14.10;4.70;;;;;;;;;;6034237;29;21084;-73
2022/05/29 05:29:33;;;;;;;11.23;5.63;;;;;;;;;;6043169;29;20241;-73
2022/05/29 05:32:54;;;;;;;11.90;5.03;;;;;;;;;;6038239;29;20266;-73
2022/05/29 05:36:15;;;;;;;14.60;6.00;;;;;;;;;;6037557;29;20257;-73
2022/05/29 05:39:35;;;;;;;16.60;5.17;;;;;;;;;;6034126;29;20396;-72
2022/05/29 05:42:57;;;;;;;9.70;4.50;;;;;;;;;;6040642;29;21761;-74
2022/05/29 05:46:18;;;;;;;12.83;5.63;;;;;;;;;;6033868;29;20241;-74
2022/05/29 05:49:39;;;;;;;9.77;4.77;;;;;;;;;;6038139;29;20639;-74
2022/05/29 05:52:59;;;;;;;8.10;4.40;;;;;;;;;;6043458;29;20233;-72
2022/05/29 05:56:20;;;;;;;17.23;6.33;;;;;;;;;;6027734;29;20242;-73
2022/05/29 05:59:42;;;;;;;11.53;5.27;;;;;;;;;;6039882;29;20320;-73
2022/05/29 06:03:02;;;;;;;11.60;5.40;;;;;;;;;;6029152;29;20759;-73
2022/05/29 06:06:23;;;;;;;10.57;4.33;;;;;;;;;;6041981;29;20624;-72
2022/05/29 06:09:43;;;;;;;18.63;4.90;;;;;;;;;;6041452;29;20254;-73
2022/05/29 06:13:05;;;;;;;11.37;5.03;;;;;;;;;;6038214;29;20612;-73
2022/05/29 06:16:27;;;;;;;15.40;5.40;;;;;;;;;;6024360;29;20336;-73
2022/05/29 06:19:47;;;;;;;16.07;5.03;;;;;;;;;;6036952;29;20648;-73
2022/05/29 06:23:08;;;;;;;13.03;4.17;;;;;;;;;;6039910;29;20241;-72
2022/05/29 06:26:28;;;;;;;13.17;5.00;;;;;;;;;;6040802;29;20668;-73
2022/05/29 06:29:49;;;;;;;13.60;5.33;;;;;;;;;;6036259;29;20261;-74
2022/05/29 06:33:12;;;;;;;10.23;4.90;;;;;;;;;;6036281;29;20605;-73
2022/05/29 06:36:32;;;;;;;13.90;5.43;;;;;;;;;;6040187;29;20679;-73
2022/05/29 06:39:53;;;;;;;14.70;5.03;;;;;;;;;;6036984;29;20233;-72
2022/05/29 06:43:13;;;;;;;14.10;5.77;;;;;;;;;;6038128;29;20238;-73
2022/05/29 06:46:35;;;;;;;9.77;4.73;;;;;;;;;;6035578;29;20615;-73
2022/05/29 06:49:57;;;;;;;10.53;5.47;;;;;;;;;;6024587;29;20488;-73
2022/05/29 06:53:17;;;;;;;11.20;5.17;;;;;;;;;;6008146;29;20602;-73
2022/05/29 06:56:38;;;;;;;8.53;4.73;;;;;;;;;;6032789;29;20257;-73
2022/05/29 07:07:17;;;;;;;9.97;4.80;;;;;;;;;;6036841;29;20249;-72
2022/05/29 07:10:39;;;;;;;11.63;3.80;;;;;;;;;;6034869;29;20725;-73
2022/05/29 07:14:00;;;;;;;8.40;4.33;;;;;;;;;;6037181;29;20234;-72
2022/05/29 07:17:22;;;;;;;8.07;3.83;;;;;;;;;;6038364;29;20515;-72
2022/05/29 07:20:42;;;;;;;9.77;4.40;;;;;;;;;;6035738;29;20270;-73
2022/05/29 07:24:04;;;;;;;6.63;3.53;;;;;;;;;;6038576;29;20552;-73
2022/05/29 07:27:25;;;;;;;7.13;3.13;;;;;;;;;;6031879;29;20520;-73
2022/05/29 07:30:48;;;;;;;6.93;3.87;;;;;;;;;;6031840;29;20238;-74
2022/05/29 07:34:08;;;;;;;10.73;4.10;;;;;;;;;;6038532;29;20242;-72
2022/05/29 07:37:28;;;;;;;11.73;4.77;;;;;;;;;;6035191;29;20242;-73
2022/05/29 07:40:51;;;;;;;16.17;4.87;;;;;;;;;;6033858;29;20238;-74
2022/05/29 07:44:11;;;;;;;9.50;4.97;;;;;;;;;;6036042;29;20242;-73
2022/05/29 07:47:35;;;;;;;9.23;3.60;;;;;;;;;;6034403;29;20224;-73
2022/05/29 07:50:56;;;;;;;8.43;4.43;;;;;;;;;;6038493;29;20234;-74
2022/05/29 07:54:17;;;;;;;6.83;4.27;;;;;;;;;;6016239;29;20763;-73
2022/05/29 07:57:38;;;;;;;7.70;3.40;;;;;;;;;;6025231;29;20269;-74
2022/05/29 08:00:59;;;;;;;6.63;3.37;;;;;;;;;;6027948;29;20656;-72
2022/05/29 08:04:20;;;;;;;11.00;4.43;;;;;;;;;;6027224;29;20246;-73
2022/05/29 08:07:40;;;;;;;11.27;4.53;;;;;;;;;;6033736;29;20592;-73
2022/05/29 08:11:02;;;;;;;14.60;5.07;;;;;;;;;;6029528;29;20238;-72
2022/05/29 08:14:24;;;;;;;10.47;5.00;;;;;;;;;;6025635;29;20250;-73
2022/05/29 08:17:46;;;;;;;11.97;4.67;;;;;;;;;;6031090;29;20229;-73
2022/05/29 08:21:07;;;;;;;10.20;4.53;;;;;;;;;;6034100;29;20249;-73
2022/05/29 08:31:45;;;;;;;9.83;3.90;;;;;;;;;;6023675;29;20257;-73
2022/05/29 08:35:06;;;;;;;6.90;4.80;;;;;;;;;;6032843;29;20340;-73
2022/05/29 08:38:27;;;;;;;13.80;4.40;;;;;;;;;;6030809;29;20269;-73
2022/05/29 08:41:51;;;;;;;9.00;4.07;;;;;;;;;;6036890;29;20237;-73
2022/05/29 08:45:12;;;;;;;10.10;5.47;;;;;;;;;;6040305;29;20612;-72
2022/05/29 08:48:35;;;;;;;7.37;3.90;;;;;;;;;;6037040;29;20587;-72
2022/05/29 08:52:01;;;;;;;8.47;4.43;;;;;;;;;;6038622;29;20230;-72
2022/05/29 08:55:26;;;;;;;15.33;5.70;;;;;;;;;;6039793;29;20237;-72
2022/05/29 08:58:57;;;;;;;11.50;5.47;;;;;;;;;;6040978;29;20675;-72
2022/05/29 09:02:23;;;;;;;10.13;5.03;;;;;;;;;;6029238;29;20321;-70
2022/05/29 09:05:48;;;;;;;7.50;3.57;;;;;;;;;;6033417;29;20237;-70
2022/05/29 09:09:13;;;;;;;7.47;4.20;;;;;;;;;;6039604;29;22020;-72
2022/05/29 09:12:37;;;;;;;8.97;3.53;;;;;;;;;;6032984;29;20237;-72
2022/05/29 09:15:59;;;;;;;8.80;4.60;;;;;;;;;;6034877;29;20238;-71
2022/05/29 09:19:27;;;;;;;11.83;5.17;;;;;;;;;;6029968;29;21879;-72
2022/05/29 09:22:49;;;;;;;8.07;4.93;;;;;;;;;;6034148;29;20329;-72
2022/05/29 09:26:14;;;;;;;7.87;4.43;;;;;;;;;;6032071;29;20227;-73
2022/05/29 09:29:36;;;;;;;8.70;4.30;;;;;;;;;;6038652;29;20237;-72
2022/05/29 09:32:58;;;;;;;4.57;3.07;;;;;;;;;;6035204;29;20548;-73
2022/05/29 09:36:24;;;;;;;11.07;4.10;;;;;;;;;;6033191;29;20225;-71
2022/05/29 09:39:48;;;;;;;8.43;4.33;;;;;;;;;;6038819;29;20324;-73
2022/05/29 09:43:17;;;;;;;5.37;3.30;;;;;;;;;;6039957;29;20246;-72
2022/05/29 09:46:38;;;;;;;5.13;3.70;;;;;;;;;;6039916;29;20332;-73
2022/05/29 09:50:04;;;;;;;4.50;2.63;;;;;;;;;;6038748;29;20257;-71
2022/05/29 09:53:27;;;;;;;6.10;3.40;;;;;;;;;;6035819;29;21019;-72
2022/05/29 09:56:49;;;;;;;4.50;2.57;;;;;;;;;;6041631;29;20245;-70
2022/05/29 10:00:13;;;;;;;5.47;2.57;;;;;;;;;;6038027;29;20601;-70
2022/05/29 10:03:43;;;;;;;5.07;3.20;;;;;;;;;;6032546;29;20230;-71
2022/05/29 10:07:13;;;;;;;5.10;3.27;;;;;;;;;;6036981;29;20807;-72
2022/05/29 10:10:35;;;;;;;5.50;3.27;;;;;;;;;;6037598;29;20226;-70
2022/05/29 10:14:00;;;;;;;8.87;3.40;;;;;;;;;;6041794;29;20252;-71
2022/05/29 10:17:33;;;;;;;8.43;3.50;;;;;;;;;;6032151;29;20234;-71
2022/05/29 10:20:55;;;;;;;6.40;3.67;;;;;;;;;;6033392;29;20225;-71
2022/05/29 10:24:21;;;;;;;7.17;3.23;;;;;;;;;;6038464;29;20549;-71
2022/05/29 10:27:41;;;;;;;8.33;2.90;;;;;;;;;;6027804;29;21098;-72
2022/05/29 10:31:04;;;;;;;8.40;3.13;;;;;;;;;;6032011;29;20238;-72
2022/05/29 10:34:26;;;;;;;7.50;3.17;;;;;;;;;;6043401;29;20222;-72
2022/05/29 10:37:47;;;;;;;10.33;4.07;;;;;;;;;;6033867;29;20631;-71
2022/05/29 10:41:09;;;;;;;6.27;3.07;;;;;;;;;;6036858;29;20627;-71
2022/05/29 10:44:38;;;;;;;7.43;3.10;;;;;;;;;;6038229;29;20250;-71
2022/05/29 10:48:10;;;;;;;11.87;4.83;;;;;;;;;;6031609;29;20241;-70
2022/05/29 10:51:37;;;;;;;9.63;4.13;;;;;;;;;;6032412;29;20245;-72
2022/05/29 10:55:04;;;;;;;9.27;3.20;;;;;;;;;;6033859;29;20360;-72
2022/05/29 10:58:34;;;;;;;4.77;2.53;;;;;;;;;;6030506;29;20265;-72
2022/05/29 11:05:42;;;;;;;5.97;2.80;;;;;;;;;;6032889;29;20300;-72
2022/05/29 11:09:08;;;;;;;5.63;2.50;;;;;;;;;;6030765;29;20234;-73
2022/05/29 11:12:33;;;;;;;3.80;1.90;;;;;;;;;;6017871;29;20226;-73
2022/05/29 11:16:00;;;;;;;4.17;2.03;;;;;;;;;;6051981;29;20536;-73
2022/05/29 11:19:30;;;;;;;5.97;2.70;;;;;;;;;;6016565;29;20242;-73
2022/05/29 11:23:01;;;;;;;4.77;2.30;;;;;;;;;;6031694;29;20233;-74
2022/05/29 11:26:27;;;;;;;7.23;2.83;;;;;;;;;;6001913;29;20328;-70
2022/05/29 11:29:55;;;;;;;5.23;2.43;;;;;;;;;;6033120;29;20289;-68
2022/05/29 11:33:23;;;;;;;9.27;3.53;;;;;;;;;;6033669;29;20612;-69
2022/05/29 11:36:50;;;;;;;3.87;2.63;;;;;;;;;;6038373;29;20236;-69
2022/05/29 11:40:17;;;;;;;5.03;2.77;;;;;;;;;;6037974;29;20242;-69
2022/05/29 11:43:45;;;;;;;8.57;3.57;;;;;;;;;;6035919;29;20259;-70
2022/05/29 11:54:31;;;;;;;6.70;3.10;;;;;;;;;;6040504;29;20257;-70
2022/05/29 11:57:54;;;;;;;8.83;4.40;;;;;;;;;;6038490;29;20708;-69
2022/05/29 12:01:17;;;;;;;5.27;2.50;;;;;;;;;;6035795;29;20828;-68
2022/05/29 12:04:42;;;;;;;4.87;2.40;;;;;;;;;;6029874;29;20618;-69
2022/05/29 12:08:08;;;;;;;4.50;2.60;;;;;;;;;;6031989;29;20238;-69
2022/05/29 12:11:34;;;;;;;6.30;3.40;;;;;;;;;;6031884;29;20695;-70
2022/05/29 12:14:58;;;;;;;5.23;1.80;;;;;;;;;;6038389;29;20241;-70
2022/05/29 12:18:19;;;;;;;3.57;1.87;;;;;;;;;;6032703;29;20230;-70
2022/05/29 12:21:48;;;;;;;5.27;2.33;;;;;;;;;;6035829;29;20246;-70
2022/05/29 12:25:20;;;;;;;4.53;2.60;;;;;;;;;;6016607;29;20253;-69
2022/05/29 12:28:44;;;;;;;4.53;2.07;;;;;;;;;;6033088;29;20237;-69
2022/05/29 12:32:10;;;;;;;6.73;2.80;;;;;;;;;;6035498;29;20229;-68
2022/05/29 12:35:35;;;;;;;5.17;2.90;;;;;;;;;;6035112;29;20234;-70
2022/05/29 12:39:02;;;;;;;5.53;2.90;;;;;;;;;;6036993;29;20234;-69
2022/05/29 12:42:30;;;;;;;5.90;2.80;;;;;;;;;;6038757;29;20242;-69
2022/05/29 12:45:55;;;;;;;6.83;2.80;;;;;;;;;;6038631;29;20264;-69
2022/05/29 12:49:33;;;;;;;4.73;2.23;;;;;;;;;;6038618;29;20654;-69
2022/05/29 12:53:09;;;;;;;7.80;2.87;;;;;;;;;;6036674;29;20233;-69
2022/05/29 12:56:41;;;;;;;3.33;2.03;;;;;;;;;;6042536;29;20794;-69
2022/05/29 13:00:11;;;;;;;3.27;2.10;;;;;;;;;;6036201;29;20242;-69
2022/05/29 13:03:52;;;;;;;5.17;3.03;;;;;;;;;;6038418;29;20667;-68
2022/05/29 13:07:25;;;;;;;3.63;2.23;;;;;;;;;;6032438;29;20248;-70
2022/05/29 13:10:48;;;;;;;4.77;2.10;;;;;;;;;;6035005;29;20250;-70
2022/05/29 13:14:10;;;;;;;4.23;1.87;;;;;;;;;;6032279;29;20242;-68
2022/05/29 13:17:32;;;;;;;5.90;2.80;;;;;;;;;;6038990;29;20679;-69
2022/05/29 13:21:11;;;;;;;4.43;2.90;;;;;;;;;;6040598;29;20241;-68
2022/05/29 13:24:33;;;;;;;4.83;2.07;;;;;;;;;;6039100;29;20242;-68
2022/05/29 13:27:56;;;;;;;6.30;3.30;;;;;;;;;;6038278;29;20549;-68
2022/05/29 13:31:18;;;;;;;4.80;3.13;;;;;;;;;;6038567;29;20999;-71
2022/05/29 13:34:39;;;;;;;2.93;1.80;;;;;;;;;;6036839;29;20342;-70
2022/05/29 13:38:01;;;;;;;4.63;2.50;;;;;;;;;;6039229;29;20494;-72
2022/05/29 13:41:26;;;;;;;7.40;2.53;;;;;;;;;;6042438;29;20970;-73
2022/05/29 13:44:46;;;;;;;4.37;2.37;;;;;;;;;;6039540;29;20250;-73
2022/05/29 13:48:14;;;;;;;5.90;3.07;;;;;;;;;;6035798;29;20230;-73
2022/05/29 13:51:41;;;;;;;3.23;2.40;;;;;;;;;;6038347;29;21354;-72
2022/05/29 13:55:04;;;;;;;6.77;2.50;;;;;;;;;;6034030;29;20299;-73
2022/05/29 14:05:49;;;;;;;5.27;1.87;;;;;;;;;;6035862;29;20229;-72
2022/05/29 14:09:30;;;;;;;6.60;2.50;;;;;;;;;;6043960;29;20253;-72
2022/05/29 14:12:54;;;;;;;4.93;2.80;;;;;;;;;;6033624;29;20245;-72
2022/05/29 14:16:37;;;;;;;2.47;1.67;;;;;;;;;;6034099;29;20254;-73
2022/05/29 14:20:24;;;;;;;5.93;2.70;;;;;;;;;;6035463;29;20242;-73
2022/05/29 14:23:53;;;;;;;8.23;2.60;;;;;;;;;;6039722;29;20620;-72
2022/05/29 14:28:02;;;;;;;4.23;1.83;;;;;;;;;;6034927;29;20265;-73
2022/05/29 14:31:38;;;;;;;2.27;1.40;;;;;;;;;;6015423;29;20269;-72
2022/05/29 14:35:10;;;;;;;3.27;1.97;;;;;;;;;;6030377;29;20243;-74
2022/05/29 14:38:48;;;;;;;6.23;2.53;;;;;;;;;;6036897;29;20309;-73
2022/05/29 14:42:16;;;;;;;3.67;2.00;;;;;;;;;;6019878;29;20238;-72
2022/05/29 14:45:37;;;;;;;3.47;2.47;;;;;;;;;;6025165;29;20249;-73
2022/05/29 14:48:59;;;;;;;5.10;3.17;;;;;;;;;;6032391;29;20234;-73
2022/05/29 14:52:26;;;;;;;5.83;2.57;;;;;;;;;;6039676;29;20261;-74
2022/05/29 14:55:48;;;;;;;5.77;2.10;;;;;;;;;;6042220;29;20242;-77
2022/05/29 14:59:19;;;;;;;9.00;3.30;;;;;;;;;;6033506;29;20254;-78
2022/05/29 15:02:41;;;;;;;7.13;3.57;;;;;;;;;;6033850;29;20229;-77
2022/05/29 15:06:03;;;;;;;16.33;3.37;;;;;;;;;;6040523;29;20230;-74
2022/05/29 15:13:08;;;;;;;8.63;2.93;;;;;;;;;;6030926;29;20265;-74
2022/05/29 15:16:30;;;;;;;5.97;3.17;;;;;;;;;;6035635;29;20608;-74
2022/05/29 15:27:10;;;;;;;3.60;1.93;;;;;;;;;;6039069;29;20285;-73
2022/05/29 15:30:31;;;;;;;3.10;1.63;;;;;;;;;;6038195;29;20222;-75
2022/05/29 15:34:09;;;;;;;7.20;1.80;;;;;;;;;;6034027;29;20642;-75
2022/05/29 15:37:39;;;;;;;2.83;1.50;;;;;;;;;;6002076;29;20242;-79
2022/05/29 15:41:05;;;;;;;3.93;2.17;;;;;;;;;;6024537;29;20273;-81
2022/05/29 15:44:35;;;;;;;4.00;2.30;;;;;;;;;;6026488;29;20332;-81
2022/05/29 15:48:04;;;;;;;4.90;1.80;;;;;;;;;;6046416;29;20226;-77
2022/05/29 15:51:31;;;;;;;6.53;2.63;;;;;;;;;;6042799;29;20240;-73
2022/05/29 15:54:59;;;;;;;6.30;2.13;;;;;;;;;;6036653;29;20234;-74
2022/05/29 15:58:30;;;;;;;7.00;2.40;;;;;;;;;;6040279;29;20225;-73
2022/05/29 16:02:01;;;;;;;4.23;2.03;;;;;;;;;;6028725;29;20226;-76
2022/05/29 16:05:23;;;;;;;9.10;2.60;;;;;;;;;;6015099;29;20325;-75
2022/05/29 16:08:48;;;;;;;7.90;2.93;;;;;;;;;;6045427;29;20241;-78
2022/05/29 16:12:15;;;;;;;3.33;2.57;;;;;;;;;;6034928;29;20240;-75
2022/05/29 16:15:59;;;;;;;5.73;2.80;;;;;;;;;;6038644;29;20320;-73
2022/05/29 16:19:30;;;;;;;12.77;3.57;;;;;;;;;;6029146;29;20237;-80
2022/05/29 16:22:57;;;;;;;8.77;4.07;;;;;;;;;;6046718;29;20242;-75
2022/05/29 16:26:22;;;;;;;11.83;4.10;;;;;;;;;;6046947;29;20233;-73
2022/05/29 16:29:45;;;;;;;8.90;3.57;;;;;;;;;;6036632;29;20237;-77
2022/05/29 16:33:08;;;;;;;13.67;4.27;;;;;;;;;;6039390;29;20229;-77
2022/05/29 16:36:31;;;;;;;10.13;3.43;;;;;;;;;;6036385;29;20242;-76
2022/05/29 16:51:13;;;;;;;10.60;3.70;;;;;;;;;;6041713;29;22139;-77
2022/05/29 16:54:42;;;;;;;14.83;4.93;;;;;;;;;;6045133;29;20584;-79
2022/05/29 16:58:03;;;;;;;9.87;4.13;;;;;;;;;;6041942;29;20508;-78
2022/05/29 17:01:26;;;;;;;11.30;3.70;;;;;;;;;;6041588;29;20325;-79
2022/05/29 17:04:58;;;;;;;16.97;4.23;;;;;;;;;;6041983;29;20702;-78
2022/05/29 17:08:20;;;;;;;9.93;4.13;;;;;;;;;;6039532;29;20225;-78
2022/05/29 17:11:42;;;;;;;12.37;3.80;;;;;;;;;;6045975;29;20237;-78
2022/05/29 17:15:03;;;;;;;10.63;4.10;;;;;;;;;;6046602;29;20618;-77
2022/05/29 17:18:24;;;;;;;17.37;4.33;;;;;;;;;;6046636;29;20237;-77
2022/05/29 17:21:47;;;;;;;9.33;3.40;;;;;;;;;;6042287;29;20632;-77
2022/05/29 17:25:10;;;;;;;11.53;3.87;;;;;;;;;;6044407;29;20306;-77
2022/05/29 17:28:43;;;;;;;11.37;4.43;;;;;;;;;;6039892;29;20242;-78
2022/05/29 17:32:06;;;;;;;7.77;3.60;;;;;;;;;;6045624;29;20260;-79
2022/05/29 17:35:29;;;;;;;13.20;3.97;;;;;;;;;;6027070;29;20234;-79
2022/05/29 17:38:52;;;;;;;14.07;4.30;;;;;;;;;;6040884;29;20900;-78
2022/05/29 17:42:12;;;;;;;10.27;3.23;;;;;;;;;;6028964;29;20234;-77
2022/05/29 17:45:36;;;;;;;11.83;4.27;;;;;;;;;;6020664;29;20755;-77
2022/05/29 17:49:03;;;;;;;10.80;4.03;;;;;;;;;;6030827;29;20246;-78
2022/05/29 17:52:30;;;;;;;14.80;4.40;;;;;;;;;;6027797;29;20242;-75
2022/05/29 17:55:51;;;;;;;10.63;3.40;;;;;;;;;;6024602;29;20313;-78
2022/05/29 17:59:11;;;;;;;12.40;4.60;;;;;;;;;;6038053;29;20257;-76
2022/05/29 18:02:33;;;;;;;16.33;4.40;;;;;;;;;;6032773;29;20286;-76
2022/05/29 18:05:53;;;;;;;11.67;3.43;;;;;;;;;;6030555;29;20233;-77
2022/05/29 18:09:14;;;;;;;6.37;2.63;;;;;;;;;;6035054;29;20233;-77
2022/05/29 18:12:35;;;;;;;8.13;3.73;;;;;;;;;;6039055;29;20340;-77
2022/05/29 18:15:56;;;;;;;9.87;3.40;;;;;;;;;;6032589;29;20233;-76
2022/05/29 18:19:18;;;;;;;11.23;3.67;;;;;;;;;;6038838;29;20226;-77
2022/05/29 18:22:38;;;;;;;10.70;3.23;;;;;;;;;;6035174;29;20643;-78
2022/05/29 18:26:00;;;;;;;11.87;3.10;;;;;;;;;;6032574;29;20225;-77
2022/05/29 18:29:20;;;;;;;9.73;3.13;;;;;;;;;;6030015;29;20230;-80
2022/05/29 18:32:40;;;;;;;6.07;2.80;;;;;;;;;;6027166;29;20946;-77
2022/05/29 18:36:03;;;;;;;7.73;2.90;;;;;;;;;;6020163;29;20238;-78
2022/05/29 18:39:24;;;;;;;5.77;2.83;;;;;;;;;;6018881;29;20651;-79
2022/05/29 18:42:44;;;;;;;8.30;3.53;;;;;;;;;;6022191;29;20238;-74
2022/05/29 18:46:08;;;;;;;10.93;4.30;;;;;;;;;;6031554;29;20234;-81
2022/05/29 18:49:29;;;;;;;12.17;3.17;;;;;;;;;;6032362;29;20568;-81
2022/05/29 18:52:51;;;;;;;10.00;2.73;;;;;;;;;;6030316;29;20242;-74
2022/05/29 18:56:12;;;;;;;6.23;3.00;;;;;;;;;;6035293;29;20233;-76
2022/05/29 18:59:36;;;;;;;13.27;3.93;;;;;;;;;;6040359;29;20703;-84
2022/05/29 19:02:58;;;;;;;9.93;3.23;;;;;;;;;;6039981;29;20616;-78
2022/05/29 19:06:19;;;;;;;11.67;5.70;;;;;;;;;;6032485;29;20233;-77
2022/05/29 19:09:41;;;;;;;7.97;3.53;;;;;;;;;;6026674;29;20316;-76
2022/05/29 19:13:02;;;;;;;9.10;3.57;;;;;;;;;;6027261;29;20269;-75
2022/05/29 19:16:24;;;;;;;9.33;4.10;;;;;;;;;;6029632;29;20242;-76
2022/05/29 19:19:44;;;;;;;7.93;3.50;;;;;;;;;;6033472;29;20616;-75
2022/05/29 19:23:05;;;;;;;8.67;2.23;;;;;;;;;;6036481;29;20478;-78
2022/05/29 19:26:28;;;;;;;7.83;2.27;;;;;;;;;;6020642;29;20234;-74
2022/05/29 19:29:49;;;;;;;11.90;3.43;;;;;;;;;;6036916;29;20498;-79
2022/05/29 19:33:10;;;;;;;6.50;2.40;;;;;;;;;;6025945;29;20776;-75
2022/05/29 19:36:31;;;;;;;8.47;3.27;;;;;;;;;;6037643;29;20234;-79
2022/05/29 19:39:52;;;;;;;9.87;3.57;;;;;;;;;;6026509;29;20229;-79
2022/05/29 19:43:16;;;;;;;7.63;3.27;;;;;;;;;;6035734;29;20254;-74
2022/05/29 19:46:36;;;;;;;6.93;3.23;;;;;;;;;;6042849;29;20243;-77
2022/05/29 19:49:58;;;;;;;6.03;3.50;;;;;;;;;;6013553;29;20819;-76
2022/05/29 19:53:19;;;;;;;6.67;3.17;;;;;;;;;;6000540;29;20241;-75
2022/05/29 19:56:40;;;;;;;9.87;3.57;;;;;;;;;;6035599;29;20229;-78
2022/05/29 20:00:03;;;;;;;9.80;2.67;;;;;;;;;;6042208;29;20233;-77
2022/05/29 20:03:25;;;;;;;7.77;2.83;;;;;;;;;;6037205;29;20242;-76
2022/05/29 20:06:46;;;;;;;6.13;1.90;;;;;;;;;;6040501;29;20503;-78
2022/05/29 20:10:08;;;;;;;7.63;2.80;;;;;;;;;;6037996;29;20241;-76
2022/05/29 20:13:29;;;;;;;7.43;3.77;;;;;;;;;;6044583;29;20939;-76
2022/05/29 20:16:52;;;;;;;6.87;2.43;;;;;;;;;;6040552;29;20337;-78
2022/05/29 20:20:13;;;;;;;7.43;2.10;;;;;;;;;;6040314;29;20226;-77
2022/05/29 20:23:34;;;;;;;5.93;3.13;;;;;;;;;;6038459;29;20237;-77
2022/05/29 20:26:55;;;;;;;5.97;2.73;;;;;;;;;;6039115;29;20548;-77
2022/05/29 20:30:16;;;;;;;11.83;3.67;;;;;;;;;;6034263;29;20242;-73
2022/05/29 20:33:38;;;;;;;7.00;2.60;;;;;;;;;;6059313;29;20297;-76
2022/05/29 20:36:59;;;;;;;6.63;2.33;;;;;;;;;;6044619;29;20241;-75
2022/05/29 20:40:19;;;;;;;7.77;2.57;;;;;;;;;;6043006;29;20238;-77
2022/05/29 20:43:40;;;;;;;10.33;2.90;;;;;;;;;;6051617;29;20568;-75
2022/05/29 20:50:41;;;;;;;8.70;4.67;;;;;;;;;;6050192;29;20238;-75
2022/05/29 20:54:02;;;;;;;5.63;2.27;;;;;;;;;;6046666;29;20237;-77
2022/05/29 20:57:23;;;;;;;6.17;2.83;;;;;;;;;;6048616;29;20245;-74
2022/05/29 21:00:44;;;;;;;8.53;3.47;;;;;;;;;;6041878;29;20246;-76
2022/05/29 21:04:05;;;;;;;6.57;3.10;;;;;;;;;;6043440;29;20234;-75
2022/05/29 21:07:27;;;;;;;6.63;2.23;;;;;;;;;;6030811;29;20246;-74
2022/05/29 21:10:47;;;;;;;10.60;3.47;;;;;;;;;;6042719;29;20746;-75
2022/05/29 21:14:09;;;;;;;7.50;3.13;;;;;;;;;;6036743;29;20230;-74
2022/05/29 21:17:30;;;;;;;11.53;3.83;;;;;;;;;;6022079;29;20929;-72